sensor_id;sensor_type;location;lat;lon;timestamp;temperature;humidity
975;DHT22;6115;49.296;10.602;2023-08-21T00:04:37;24.50;69.40
975;DHT22;6115;49.296;10.602;2023-08-21T00:09:38;24.50;68.90
975;DHT22;6115;49.296;10.602;2023-08-21T00:14:38;24.50;69.10
975;DHT22;6115;49.296;10.602;2023-08-21T00:19:39;24.50;70.40
975;DHT22;6115;49.296;10.602;2023-08-21T00:24:39;24.40;73.60
975;DHT22;6115;49.296;10.602;2023-08-21T00:29:40;24.10;75.50
975;DHT22;6115;49.296;10.602;2023-08-21T00:34:41;23.90;78.10
975;DHT22;6115;49.296;10.602;2023-08-21T00:39:41;23.90;79.30
975;DHT22;6115;49.296;10.602;2023-08-21T00:44:42;23.70;80.10
975;DHT22;6115;49.296;10.602;2023-08-21T00:49:43;23.80;81.40
975;DHT22;6115;49.296;10.602;2023-08-21T00:54:44;23.70;82.30
975;DHT22;6115;49.296;10.602;2023-08-21T00:59:45;23.70;82.80
975;DHT22;6115;49.296;10.602;2023-08-21T01:04:45;23.70;83.50
975;DHT22;6115;49.296;10.602;2023-08-21T01:09:50;23.70;83.70
975;DHT22;6115;49.296;10.602;2023-08-21T01:14:59;23.60;84.20
975;DHT22;6115;49.296;10.602;2023-08-21T01:20:00;23.70;84.10
975;DHT22;6115;49.296;10.602;2023-08-21T01:25:01;23.70;83.60
975;DHT22;6115;49.296;10.602;2023-08-21T01:30:03;23.70;83.00
975;DHT22;6115;49.296;10.602;2023-08-21T01:35:07;23.70;82.80
975;DHT22;6115;49.296;10.602;2023-08-21T01:40:09;23.60;84.30
975;DHT22;6115;49.296;10.602;2023-08-21T01:45:10;23.70;84.30
975;DHT22;6115;49.296;10.602;2023-08-21T01:50:10;23.70;84.50
975;DHT22;6115;49.296;10.602;2023-08-21T01:55:11;23.70;84.70
975;DHT22;6115;49.296;10.602;2023-08-21T02:00:12;23.70;84.40
975;DHT22;6115;49.296;10.602;2023-08-21T02:05:13;23.50;84.30
975;DHT22;6115;49.296;10.602;2023-08-21T02:10:14;23.50;84.40
975;DHT22;6115;49.296;10.602;2023-08-21T02:15:14;23.50;84.20
975;DHT22;6115;49.296;10.602;2023-08-21T02:20:15;23.50;84.10
975;DHT22;6115;49.296;10.602;2023-08-21T02:25:16;23.50;83.90
975;DHT22;6115;49.296;10.602;2023-08-21T02:30:17;23.50;83.80
975;DHT22;6115;49.296;10.602;2023-08-21T02:35:17;23.40;83.70
975;DHT22;6115;49.296;10.602;2023-08-21T02:40:18;23.30;83.30
975;DHT22;6115;49.296;10.602;2023-08-21T02:45:18;23.30;82.90
975;DHT22;6115;49.296;10.602;2023-08-21T02:50:19;23.30;82.40
975;DHT22;6115;49.296;10.602;2023-08-21T02:55:20;23.10;82.20
975;DHT22;6115;49.296;10.602;2023-08-21T03:00:21;23.00;82.10
975;DHT22;6115;49.296;10.602;2023-08-21T03:05:22;23.00;82.10
975;DHT22;6115;49.296;10.602;2023-08-21T03:10:22;23.00;81.90
975;DHT22;6115;49.296;10.602;2023-08-21T03:15:24;23.00;82.10
975;DHT22;6115;49.296;10.602;2023-08-21T03:20:24;23.00;82.10
975;DHT22;6115;49.296;10.602;2023-08-21T03:25:25;23.10;82.30
975;DHT22;6115;49.296;10.602;2023-08-21T03:30:25;23.10;82.30
975;DHT22;6115;49.296;10.602;2023-08-21T03:35:26;23.10;82.20
975;DHT22;6115;49.296;10.602;2023-08-21T03:40:26;22.90;80.70
975;DHT22;6115;49.296;10.602;2023-08-21T03:45:27;22.80;80.90
975;DHT22;6115;49.296;10.602;2023-08-21T03:50:28;22.80;80.90
975;DHT22;6115;49.296;10.602;2023-08-21T03:55:28;22.70;80.80
975;DHT22;6115;49.296;10.602;2023-08-21T04:00:29;22.60;81.00
975;DHT22;6115;49.296;10.602;2023-08-21T04:05:29;22.50;81.60
975;DHT22;6115;49.296;10.602;2023-08-21T04:10:30;22.60;81.70
975;DHT22;6115;49.296;10.602;2023-08-21T04:15:33;22.60;81.70
975;DHT22;6115;49.296;10.602;2023-08-21T04:20:35;22.60;80.70
975;DHT22;6115;49.296;10.602;2023-08-21T04:25:36;22.50;81.10
975;DHT22;6115;49.296;10.602;2023-08-21T04:30:37;22.40;81.50
975;DHT22;6115;49.296;10.602;2023-08-21T04:35:38;22.40;81.50
975;DHT22;6115;49.296;10.602;2023-08-21T04:40:39;22.40;81.50
975;DHT22;6115;49.296;10.602;2023-08-21T04:45:48;22.40;81.50
975;DHT22;6115;49.296;10.602;2023-08-21T04:50:50;22.40;81.50
975;DHT22;6115;49.296;10.602;2023-08-21T04:55:51;22.50;81.60
975;DHT22;6115;49.296;10.602;2023-08-21T05:00:51;22.40;82.40
975;DHT22;6115;49.296;10.602;2023-08-21T05:05:53;22.40;83.10
975;DHT22;6115;49.296;10.602;2023-08-21T05:10:55;22.40;83.20
975;DHT22;6115;49.296;10.602;2023-08-21T05:15:57;22.40;82.80
975;DHT22;6115;49.296;10.602;2023-08-21T05:20:58;22.40;83.30
975;DHT22;6115;49.296;10.602;2023-08-21T05:25:58;22.50;83.30
975;DHT22;6115;49.296;10.602;2023-08-21T05:30:59;22.50;83.40
975;DHT22;6115;49.296;10.602;2023-08-21T05:36:00;22.50;83.30
975;DHT22;6115;49.296;10.602;2023-08-21T05:41:00;22.60;83.30
975;DHT22;6115;49.296;10.602;2023-08-21T05:46:01;22.60;83.20
975;DHT22;6115;49.296;10.602;2023-08-21T05:51:02;22.70;83.60
975;DHT22;6115;49.296;10.602;2023-08-21T05:56:03;22.70;83.50
975;DHT22;6115;49.296;10.602;2023-08-21T06:01:03;22.80;83.40
975;DHT22;6115;49.296;10.602;2023-08-21T06:06:04;22.90;83.20
975;DHT22;6115;49.296;10.602;2023-08-21T06:11:05;23.00;83.00
975;DHT22;6115;49.296;10.602;2023-08-21T06:16:06;23.10;82.20
975;DHT22;6115;49.296;10.602;2023-08-21T06:21:06;23.20;82.30
975;DHT22;6115;49.296;10.602;2023-08-21T06:26:07;23.40;82.00
975;DHT22;6115;49.296;10.602;2023-08-21T06:31:09;23.60;81.20
975;DHT22;6115;49.296;10.602;2023-08-21T06:36:09;23.80;80.90
975;DHT22;6115;49.296;10.602;2023-08-21T06:41:10;24.00;81.20
975;DHT22;6115;49.296;10.602;2023-08-21T06:46:10;24.20;80.00
975;DHT22;6115;49.296;10.602;2023-08-21T06:51:11;24.30;78.70
975;DHT22;6115;49.296;10.602;2023-08-21T06:56:12;24.50;79.40
975;DHT22;6115;49.296;10.602;2023-08-21T07:01:13;24.60;78.50
975;DHT22;6115;49.296;10.602;2023-08-21T07:06:13;24.60;78.50
975;DHT22;6115;49.296;10.602;2023-08-21T07:11:14;24.90;78.90
975;DHT22;6115;49.296;10.602;2023-08-21T07:16:14;24.90;78.70
975;DHT22;6115;49.296;10.602;2023-08-21T07:21:15;25.00;77.80
975;DHT22;6115;49.296;10.602;2023-08-21T07:26:16;25.20;76.60
975;DHT22;6115;49.296;10.602;2023-08-21T07:31:17;25.30;74.40
975;DHT22;6115;49.296;10.602;2023-08-21T07:36:18;25.40;75.20
975;DHT22;6115;49.296;10.602;2023-08-21T07:41:19;25.60;74.20
975;DHT22;6115;49.296;10.602;2023-08-21T07:46:20;25.80;74.70
975;DHT22;6115;49.296;10.602;2023-08-21T07:51:20;25.90;74.80
975;DHT22;6115;49.296;10.602;2023-08-21T07:56:21;26.20;72.70
975;DHT22;6115;49.296;10.602;2023-08-21T08:01:22;26.50;72.80
975;DHT22;6115;49.296;10.602;2023-08-21T08:06:22;26.70;71.90
975;DHT22;6115;49.296;10.602;2023-08-21T08:11:23;26.80;69.80
975;DHT22;6115;49.296;10.602;2023-08-21T08:16:24;27.10;69.20
975;DHT22;6115;49.296;10.602;2023-08-21T08:21:25;27.30;68.90
975;DHT22;6115;49.296;10.602;2023-08-21T08:26:26;27.50;66.70
975;DHT22;6115;49.296;10.602;2023-08-21T08:31:27;27.80;66.10
975;DHT22;6115;49.296;10.602;2023-08-21T08:36:27;28.00;63.70
975;DHT22;6115;49.296;10.602;2023-08-21T08:41:59;28.20;63.30
975;DHT22;6115;49.296;10.602;2023-08-21T08:47:03;28.60;61.90
975;DHT22;6115;49.296;10.602;2023-08-21T08:52:04;28.90;61.60
975;DHT22;6115;49.296;10.602;2023-08-21T08:57:05;29.10;59.90
975;DHT22;6115;49.296;10.602;2023-08-21T09:02:06;29.30;56.60
975;DHT22;6115;49.296;10.602;2023-08-21T09:07:10;29.40;57.10
975;DHT22;6115;49.296;10.602;2023-08-21T09:12:13;29.50;55.30
975;DHT22;6115;49.296;10.602;2023-08-21T09:17:14;29.70;55.70
975;DHT22;6115;49.296;10.602;2023-08-21T09:22:17;29.70;53.80
975;DHT22;6115;49.296;10.602;2023-08-21T09:27:20;29.90;54.00
975;DHT22;6115;49.296;10.602;2023-08-21T09:32:21;30.20;52.60
975;DHT22;6115;49.296;10.602;2023-08-21T09:37:28;30.50;51.60
975;DHT22;6115;49.296;10.602;2023-08-21T09:42:30;30.90;51.00
975;DHT22;6115;49.296;10.602;2023-08-21T09:47:31;31.40;46.20
975;DHT22;6115;49.296;10.602;2023-08-21T09:52:33;31.80;46.30
975;DHT22;6115;49.296;10.602;2023-08-21T09:57:35;32.10;45.00
975;DHT22;6115;49.296;10.602;2023-08-21T10:02:36;32.20;44.90
975;DHT22;6115;49.296;10.602;2023-08-21T10:07:37;32.40;44.80
975;DHT22;6115;49.296;10.602;2023-08-21T10:12:38;32.40;43.80
975;DHT22;6115;49.296;10.602;2023-08-21T10:17:39;32.50;40.80
975;DHT22;6115;49.296;10.602;2023-08-21T10:22:46;32.60;41.90
975;DHT22;6115;49.296;10.602;2023-08-21T10:27:50;32.70;41.40
975;DHT22;6115;49.296;10.602;2023-08-21T10:32:53;32.90;43.30
975;DHT22;6115;49.296;10.602;2023-08-21T10:38:11;33.10;42.20
975;DHT22;6115;49.296;10.602;2023-08-21T10:43:44;33.30;41.00
975;DHT22;6115;49.296;10.602;2023-08-21T10:48:45;33.30;40.70
975;DHT22;6115;49.296;10.602;2023-08-21T10:53:45;33.30;43.80
975;DHT22;6115;49.296;10.602;2023-08-21T10:58:46;33.50;42.40
975;DHT22;6115;49.296;10.602;2023-08-21T11:03:50;33.30;41.90
975;DHT22;6115;49.296;10.602;2023-08-21T11:08:51;33.40;40.80
975;DHT22;6115;49.296;10.602;2023-08-21T11:13:53;33.70;43.40
975;DHT22;6115;49.296;10.602;2023-08-21T11:18:54;33.90;44.40
975;DHT22;6115;49.296;10.602;2023-08-21T11:23:54;33.90;43.10
975;DHT22;6115;49.296;10.602;2023-08-21T11:28:55;34.10;41.00
975;DHT22;6115;49.296;10.602;2023-08-21T11:33:56;34.10;40.00
975;DHT22;6115;49.296;10.602;2023-08-21T11:39:01;34.10;41.30
975;DHT22;6115;49.296;10.602;2023-08-21T11:44:06;34.00;41.60
975;DHT22;6115;49.296;10.602;2023-08-21T11:49:08;33.90;41.10
975;DHT22;6115;49.296;10.602;2023-08-21T11:54:09;33.80;40.30
975;DHT22;6115;49.296;10.602;2023-08-21T11:59:10;33.40;40.80
975;DHT22;6115;49.296;10.602;2023-08-21T12:04:16;32.60;40.20
975;DHT22;6115;49.296;10.602;2023-08-21T12:09:18;33.00;41.80
975;DHT22;6115;49.296;10.602;2023-08-21T12:14:21;33.30;40.70
975;DHT22;6115;49.296;10.602;2023-08-21T12:19:23;33.50;41.20
975;DHT22;6115;49.296;10.602;2023-08-21T12:24:24;33.50;40.90
975;DHT22;6115;49.296;10.602;2023-08-21T12:29:25;33.40;42.40
975;DHT22;6115;49.296;10.602;2023-08-21T12:34:25;33.40;42.40
975;DHT22;6115;49.296;10.602;2023-08-21T12:39:26;33.60;40.90
975;DHT22;6115;49.296;10.602;2023-08-21T12:44:27;33.70;41.00
975;DHT22;6115;49.296;10.602;2023-08-21T12:49:34;33.60;40.90
975;DHT22;6115;49.296;10.602;2023-08-21T12:54:35;33.50;42.30
975;DHT22;6115;49.296;10.602;2023-08-21T12:59:36;33.30;40.80
975;DHT22;6115;49.296;10.602;2023-08-21T13:10:38;33.20;41.70
975;DHT22;6115;49.296;10.602;2023-08-21T13:15:39;33.30;43.70
975;DHT22;6115;49.296;10.602;2023-08-21T13:20:43;33.20;43.00
975;DHT22;6115;49.296;10.602;2023-08-21T13:25:44;33.50;40.90
975;DHT22;6115;49.296;10.602;2023-08-21T13:30:44;33.90;41.10
975;DHT22;6115;49.296;10.602;2023-08-21T13:35:45;34.10;41.30
975;DHT22;6115;49.296;10.602;2023-08-21T13:40:46;33.70;41.00
975;DHT22;6115;49.296;10.602;2023-08-21T13:45:46;34.10;40.00
975;DHT22;6115;49.296;10.602;2023-08-21T13:50:47;33.90;37.70
975;DHT22;6115;49.296;10.602;2023-08-21T13:55:49;33.60;38.00
975;DHT22;6115;49.296;10.602;2023-08-21T14:00:50;33.80;39.10
975;DHT22;6115;49.296;10.602;2023-08-21T14:05:51;34.30;35.90
975;DHT22;6115;49.296;10.602;2023-08-21T14:10:51;34.70;36.70
975;DHT22;6115;49.296;10.602;2023-08-21T14:15:52;34.70;36.80
975;DHT22;6115;49.296;10.602;2023-08-21T14:20:52;34.00;37.10
975;DHT22;6115;49.296;10.602;2023-08-21T14:25:53;34.60;35.50
975;DHT22;6115;49.296;10.602;2023-08-21T14:30:53;35.20;36.40
975;DHT22;6115;49.296;10.602;2023-08-21T14:35:54;35.60;34.70
975;DHT22;6115;49.296;10.602;2023-08-21T14:40:55;35.30;34.60
975;DHT22;6115;49.296;10.602;2023-08-21T14:45:55;34.70;36.80
975;DHT22;6115;49.296;10.602;2023-08-21T14:50:56;34.70;35.70
975;DHT22;6115;49.296;10.602;2023-08-21T14:55:56;34.40;36.60
975;DHT22;6115;49.296;10.602;2023-08-21T15:00:57;34.70;36.60
975;DHT22;6115;49.296;10.602;2023-08-21T15:05:57;34.80;35.90
975;DHT22;6115;49.296;10.602;2023-08-21T15:10:58;34.50;35.90
975;DHT22;6115;49.296;10.602;2023-08-21T15:15:59;34.50;35.50
975;DHT22;6115;49.296;10.602;2023-08-21T15:20:59;34.10;36.70
975;DHT22;6115;49.296;10.602;2023-08-21T15:26:00;33.90;38.10
975;DHT22;6115;49.296;10.602;2023-08-21T15:31:01;34.50;36.10
975;DHT22;6115;49.296;10.602;2023-08-21T15:36:01;34.90;34.80
975;DHT22;6115;49.296;10.602;2023-08-21T15:41:02;35.00;34.20
975;DHT22;6115;49.296;10.602;2023-08-21T15:46:03;35.40;35.20
975;DHT22;6115;49.296;10.602;2023-08-21T15:51:05;35.30;34.20
975;DHT22;6115;49.296;10.602;2023-08-21T15:56:06;35.20;34.80
975;DHT22;6115;49.296;10.602;2023-08-21T16:01:06;35.30;34.20
975;DHT22;6115;49.296;10.602;2023-08-21T16:06:07;35.40;33.90
975;DHT22;6115;49.296;10.602;2023-08-21T16:11:07;35.60;32.30
975;DHT22;6115;49.296;10.602;2023-08-21T16:16:08;34.40;34.30
975;DHT22;6115;49.296;10.602;2023-08-21T16:21:08;34.20;34.50
975;DHT22;6115;49.296;10.602;2023-08-21T16:26:09;33.80;36.10
975;DHT22;6115;49.296;10.602;2023-08-21T16:31:13;33.30;36.60
975;DHT22;6115;49.296;10.602;2023-08-21T16:36:14;32.80;37.20
975;DHT22;6115;49.296;10.602;2023-08-21T16:41:15;32.80;37.50
975;DHT22;6115;49.296;10.602;2023-08-21T16:46:15;32.80;37.00
975;DHT22;6115;49.296;10.602;2023-08-21T16:51:16;32.80;38.40
975;DHT22;6115;49.296;10.602;2023-08-21T16:56:16;32.60;38.40
975;DHT22;6115;49.296;10.602;2023-08-21T17:01:17;32.30;38.70
975;DHT22;6115;49.296;10.602;2023-08-21T17:06:17;32.20;37.90
975;DHT22;6115;49.296;10.602;2023-08-21T17:11:18;32.10;40.00
975;DHT22;6115;49.296;10.602;2023-08-21T17:16:19;32.00;38.50
975;DHT22;6115;49.296;10.602;2023-08-21T17:21:19;32.10;39.70
975;DHT22;6115;49.296;10.602;2023-08-21T17:26:20;32.00;39.90
975;DHT22;6115;49.296;10.602;2023-08-21T17:31:21;31.90;44.00
975;DHT22;6115;49.296;10.602;2023-08-21T17:36:21;31.70;40.50
975;DHT22;6115;49.296;10.602;2023-08-21T17:41:22;31.50;42.80
975;DHT22;6115;49.296;10.602;2023-08-21T17:46:23;31.20;44.20
975;DHT22;6115;49.296;10.602;2023-08-21T17:51:23;30.90;44.90
975;DHT22;6115;49.296;10.602;2023-08-21T17:56:24;30.90;45.90
975;DHT22;6115;49.296;10.602;2023-08-21T18:01:24;30.80;46.30
975;DHT22;6115;49.296;10.602;2023-08-21T18:06:25;30.60;47.70
975;DHT22;6115;49.296;10.602;2023-08-21T18:11:27;30.40;48.50
975;DHT22;6115;49.296;10.602;2023-08-21T18:16:27;30.10;48.30
975;DHT22;6115;49.296;10.602;2023-08-21T18:21:28;29.80;48.10
975;DHT22;6115;49.296;10.602;2023-08-21T18:26:28;29.60;48.70
975;DHT22;6115;49.296;10.602;2023-08-21T18:31:29;29.60;48.80
975;DHT22;6115;49.296;10.602;2023-08-21T18:36:31;29.40;49.10
975;DHT22;6115;49.296;10.602;2023-08-21T18:41:33;29.30;49.50
975;DHT22;6115;49.296;10.602;2023-08-21T18:46:34;29.10;50.40
975;DHT22;6115;49.296;10.602;2023-08-21T18:51:34;28.90;51.40
975;DHT22;6115;49.296;10.602;2023-08-21T18:56:35;28.60;52.00
975;DHT22;6115;49.296;10.602;2023-08-21T19:01:36;28.40;51.90
975;DHT22;6115;49.296;10.602;2023-08-21T19:06:36;28.30;52.50
975;DHT22;6115;49.296;10.602;2023-08-21T19:11:37;28.00;54.10
975;DHT22;6115;49.296;10.602;2023-08-21T19:16:37;27.70;53.60
975;DHT22;6115;49.296;10.602;2023-08-21T19:21:38;27.50;54.20
975;DHT22;6115;49.296;10.602;2023-08-21T19:26:38;27.40;54.50
975;DHT22;6115;49.296;10.602;2023-08-21T19:31:39;27.30;54.40
975;DHT22;6115;49.296;10.602;2023-08-21T19:36:39;27.30;54.80
975;DHT22;6115;49.296;10.602;2023-08-21T19:41:40;27.10;55.70
975;DHT22;6115;49.296;10.602;2023-08-21T19:46:42;27.00;55.90
975;DHT22;6115;49.296;10.602;2023-08-21T19:51:42;26.90;57.00
975;DHT22;6115;49.296;10.602;2023-08-21T19:56:43;26.80;56.70
975;DHT22;6115;49.296;10.602;2023-08-21T20:01:44;26.60;57.50
975;DHT22;6115;49.296;10.602;2023-08-21T20:06:44;26.50;57.80
975;DHT22;6115;49.296;10.602;2023-08-21T20:11:45;26.40;58.30
975;DHT22;6115;49.296;10.602;2023-08-21T20:16:45;26.20;58.40
975;DHT22;6115;49.296;10.602;2023-08-21T20:21:46;26.10;58.90
975;DHT22;6115;49.296;10.602;2023-08-21T20:26:48;26.00;59.50
975;DHT22;6115;49.296;10.602;2023-08-21T20:31:51;25.80;59.70
975;DHT22;6115;49.296;10.602;2023-08-21T20:36:51;25.70;60.50
975;DHT22;6115;49.296;10.602;2023-08-21T20:41:52;25.70;61.00
975;DHT22;6115;49.296;10.602;2023-08-21T20:46:53;25.60;60.50
975;DHT22;6115;49.296;10.602;2023-08-21T20:51:53;25.60;61.50
975;DHT22;6115;49.296;10.602;2023-08-21T20:56:54;25.40;62.40
975;DHT22;6115;49.296;10.602;2023-08-21T21:01:54;25.10;63.20
975;DHT22;6115;49.296;10.602;2023-08-21T21:06:55;25.00;63.90
975;DHT22;6115;49.296;10.602;2023-08-21T21:11:55;25.00;63.90
975;DHT22;6115;49.296;10.602;2023-08-21T21:16:56;25.00;64.70
975;DHT22;6115;49.296;10.602;2023-08-21T21:21:57;24.90;63.80
975;DHT22;6115;49.296;10.602;2023-08-21T21:26:58;24.90;63.80
975;DHT22;6115;49.296;10.602;2023-08-21T21:31:58;24.80;64.10
975;DHT22;6115;49.296;10.602;2023-08-21T21:36:59;24.70;64.60
975;DHT22;6115;49.296;10.602;2023-08-21T21:41:59;24.70;65.20
975;DHT22;6115;49.296;10.602;2023-08-21T21:47:00;24.50;65.80
975;DHT22;6115;49.296;10.602;2023-08-21T21:52:00;24.40;66.40
975;DHT22;6115;49.296;10.602;2023-08-21T21:57:01;24.20;66.80
975;DHT22;6115;49.296;10.602;2023-08-21T22:02:03;24.20;66.80
975;DHT22;6115;49.296;10.602;2023-08-21T22:07:03;24.20;66.70
975;DHT22;6115;49.296;10.602;2023-08-21T22:12:04;24.20;66.80
975;DHT22;6115;49.296;10.602;2023-08-21T22:17:05;24.10;67.00
975;DHT22;6115;49.296;10.602;2023-08-21T22:22:06;24.10;67.30
975;DHT22;6115;49.296;10.602;2023-08-21T22:27:07;24.10;67.40
975;DHT22;6115;49.296;10.602;2023-08-21T22:32:07;24.10;67.50
975;DHT22;6115;49.296;10.602;2023-08-21T22:37:08;24.00;67.80
975;DHT22;6115;49.296;10.602;2023-08-21T22:42:08;24.00;67.60
975;DHT22;6115;49.296;10.602;2023-08-21T22:47:10;24.00;67.70
975;DHT22;6115;49.296;10.602;2023-08-21T22:52:13;23.80;67.90
975;DHT22;6115;49.296;10.602;2023-08-21T22:57:14;23.90;68.00
975;DHT22;6115;49.296;10.602;2023-08-21T23:02:14;23.80;67.90
975;DHT22;6115;49.296;10.602;2023-08-21T23:07:15;23.80;67.90
975;DHT22;6115;49.296;10.602;2023-08-21T23:12:15;23.60;68.80
975;DHT22;6115;49.296;10.602;2023-08-21T23:17:16;23.50;68.90
975;DHT22;6115;49.296;10.602;2023-08-21T23:22:16;23.50;69.00
975;DHT22;6115;49.296;10.602;2023-08-21T23:27:17;23.50;69.30
975;DHT22;6115;49.296;10.602;2023-08-21T23:32:18;23.50;69.50
975;DHT22;6115;49.296;10.602;2023-08-21T23:37:18;23.40;69.30
975;DHT22;6115;49.296;10.602;2023-08-21T23:42:19;23.40;69.50
975;DHT22;6115;49.296;10.602;2023-08-21T23:47:19;23.30;69.60
975;DHT22;6115;49.296;10.602;2023-08-21T23:52:20;23.30;69.60
975;DHT22;6115;49.296;10.602;2023-08-21T23:57:20;23.20;69.80
